Time,TemperatureF,DewpointF,PressureIn,WindDirection,WindDirectionDegrees,WindSpeedMPH,WindSpeedGustMPH,Humidity,HourlyPrecipIn,Conditions,Clouds,dailyrainin,SoftwareType,DateUTC
2013-09-21 00:01:00,64.1,59.0,29.74,NW,311,8.0,-999.0,83,-99.99,,,0.00,weatherlink.com 1.10,2013-09-21 04:01:00,
2013-09-21 00:16:00,63.4,58.0,29.74,WNW,290,0.0,-999.0,83,-99.99,,,0.00,weatherlink.com 1.10,2013-09-21 04:16:00,
2013-09-21 00:32:00,63.0,57.0,29.74,WNW,287,0.0,-999.0,82,-99.99,,,0.00,weatherlink.com 1.10,2013-09-21 04:32:00,
2013-09-21 00:47:00,62.7,58.0,29.74,WNW,285,0.0,-999.0,83,-99.99,,,0.00,weatherlink.com 1.10,2013-09-21 04:47:00,
2013-09-21 01:02:00,62.3,57.0,29.73,WNW,292,0.0,-999.0,82,-99.99,,,0.00,weatherlink.com 1.10,2013-09-21 05:02:00,
2013-09-21 01:17:00,61.9,56.0,29.73,WNW,296,0.0,-999.0,82,-99.99,,,0.00,weatherlink.com 1.10,2013-09-21 05:17:00,
2013-09-21 01:32:00,61.5,56.0,29.73,WNW,295,0.0,-999.0,82,-99.99,,,0.00,weatherlink.com 1.10,2013-09-21 05:32:00,
2013-09-21 01:47:00,61.1,56.0,29.73,WNW,291,0.0,-999.0,83,-99.99,,,0.00,weatherlink.com 1.10,2013-09-21 05:47:00,
2013-09-21 02:02:00,60.9,56.0,29.73,West,280,0.0,-999.0,83,-99.99,,,0.00,weatherlink.com 1.10,2013-09-21 06:02:00,
2013-09-21 02:19:00,60.6,56.0,29.73,West,275,6.0,-999.0,84,-99.99,,,0.00,weatherlink.com 1.10,2013-09-21 06:19:00,
2013-09-21 02:32:00,60.6,56.0,29.73,West,277,0.0,-999.0,84,-99.99,,,0.00,weatherlink.com 1.10,2013-09-21 06:32:00,
2013-09-21 02:47:00,60.1,56.0,29.73,West,271,0.0,-999.0,85,-99.99,,,0.00,weatherlink.com 1.10,2013-09-21 06:47:00,
2013-09-21 03:03:00,59.7,55.0,29.73,West,269,0.0,-999.0,85,-99.99,,,0.01,weatherlink.com 1.10,2013-09-21 07:03:00,
2013-09-21 03:18:00,59.1,55.0,29.73,West,263,0.0,-999.0,86,-99.99,,,0.01,weatherlink.com 1.10,2013-09-21 07:18:00,
2013-09-21 03:33:00,58.9,55.0,29.72,West,263,6.0,-999.0,87,-99.99,,,0.01,weatherlink.com 1.10,2013-09-21 07:33:00,
2013-09-21 03:48:00,58.8,55.0,29.72,West,263,0.0,-999.0,87,-99.99,,,0.01,weatherlink.com 1.10,2013-09-21 07:48:00,
2013-09-21 04:03:00,58.5,55.0,29.72,West,263,0.0,-999.0,88,-99.99,,,0.01,weatherlink.com 1.10,2013-09-21 08:03:00,
2013-09-21 04:18:00,58.4,55.0,29.71,West,264,0.0,-999.0,88,-99.99,,,0.01,weatherlink.com 1.10,2013-09-21 08:18:00,
2013-09-21 04:33:00,58.4,55.0,29.71,West,264,0.0,-999.0,89,-99.99,,,0.01,weatherlink.com 1.10,2013-09-21 08:33:00,
2013-09-21 04:48:00,58.2,55.0,29.71,West,263,0.0,-999.0,89,-99.99,,,0.01,weatherlink.com 1.10,2013-09-21 08:48:00,
2013-09-21 05:03:00,57.8,55.0,29.71,West,265,0.0,-999.0,90,-99.99,,,0.01,weatherlink.com 1.10,2013-09-21 09:03:00,
2013-09-21 05:18:00,57.5,55.0,29.70,West,265,0.0,-999.0,90,-99.99,,,0.01,weatherlink.com 1.10,2013-09-21 09:18:00,
2013-09-21 05:33:00,57.1,55.0,29.70,West,265,1.0,-999.0,91,-99.99,,,0.01,weatherlink.com 1.10,2013-09-21 09:33:00,
2013-09-21 05:49:00,56.6,54.0,29.70,West,265,0.0,-999.0,92,-99.99,,,0.01,weatherlink.com 1.10,2013-09-21 09:49:00,
2013-09-21 06:04:00,56.4,54.0,29.70,West,265,0.0,-999.0,92,-99.99,,,0.01,weatherlink.com 1.10,2013-09-21 10:04:00,
2013-09-21 06:19:00,56.1,54.0,29.70,West,265,0.0,-999.0,92,-99.99,,,0.01,weatherlink.com 1.10,2013-09-21 10:19:00,
2013-09-21 06:34:00,56.0,54.0,29.71,West,265,3.0,-999.0,93,-99.99,,,0.01,weatherlink.com 1.10,2013-09-21 10:34:00,
2013-09-21 06:49:00,55.9,54.0,29.71,West,265,0.0,-999.0,93,-99.99,,,0.01,weatherlink.com 1.10,2013-09-21 10:49:00,
2013-09-21 07:04:00,55.8,54.0,29.71,West,265,0.0,-999.0,93,-99.99,,,0.01,weatherlink.com 1.10,2013-09-21 11:04:00,
2013-09-21 07:19:00,55.8,54.0,29.71,West,264,0.0,-999.0,93,-99.99,,,0.01,weatherlink.com 1.10,2013-09-21 11:19:00,
2013-09-21 07:34:00,55.8,54.0,29.72,West,263,0.0,-999.0,93,-99.99,,,0.01,weatherlink.com 1.10,2013-09-21 11:34:00,
2013-09-21 07:49:00,56.0,54.0,29.73,West,265,6.0,-999.0,93,-99.99,,,0.01,weatherlink.com 1.10,2013-09-21 11:49:00,
2013-09-21 08:04:00,56.4,55.0,29.73,West,264,0.0,-999.0,93,-99.99,,,0.01,weatherlink.com 1.10,2013-09-21 12:04:00,
2013-09-21 08:19:00,57.1,55.0,29.73,West,264,0.0,-999.0,93,-99.99,,,0.01,weatherlink.com 1.10,2013-09-21 12:19:00,
2013-09-21 08:34:00,57.7,55.0,29.73,West,265,5.0,-999.0,92,-99.99,,,0.01,weatherlink.com 1.10,2013-09-21 12:34:00,
2013-09-21 08:50:00,58.2,56.0,29.73,West,267,0.0,-999.0,92,-99.99,,,0.01,weatherlink.com 1.10,2013-09-21 12:50:00,
2013-09-21 09:05:00,58.7,56.0,29.74,WNW,286,0.0,-999.0,91,-99.99,,,0.01,weatherlink.com 1.10,2013-09-21 13:05:00,
2013-09-21 09:20:00,60.2,57.0,29.74,WNW,288,5.0,-999.0,90,-99.99,,,0.01,weatherlink.com 1.10,2013-09-21 13:20:00,
2013-09-21 09:35:00,61.4,58.0,29.74,West,279,0.0,-999.0,88,-99.99,,,0.01,weatherlink.com 1.10,2013-09-21 13:35:00,
2013-09-21 09:50:00,59.8,57.0,29.75,NW,305,5.0,-999.0,91,-99.99,,,0.01,weatherlink.com 1.10,2013-09-21 13:50:00,
2013-09-21 10:05:00,59.3,57.0,29.76,NW,316,0.0,-999.0,91,-99.99,,,0.01,weatherlink.com 1.10,2013-09-21 14:05:00,
2013-09-21 10:20:00,59.4,56.0,29.76,NNW,338,0.0,-999.0,89,-99.99,,,0.01,weatherlink.com 1.10,2013-09-21 14:20:00,
2013-09-21 10:35:00,61.7,57.0,29.76,NW,325,6.0,-999.0,83,-99.99,,,0.01,weatherlink.com 1.10,2013-09-21 14:35:00,
2013-09-21 10:50:00,61.4,57.0,29.77,NNW,334,9.0,-999.0,84,-99.99,,,0.01,weatherlink.com 1.10,2013-09-21 14:50:00,
2013-09-21 11:05:00,64.8,57.0,29.77,NW,320,0.0,-999.0,75,-99.99,,,0.01,weatherlink.com 1.10,2013-09-21 15:05:00,
2013-09-21 11:20:00,63.7,55.0,29.77,NNW,328,0.0,-999.0,73,-99.99,,,0.01,weatherlink.com 1.10,2013-09-21 15:20:00,
2013-09-21 11:35:00,64.7,55.0,29.77,WNW,302,0.0,-999.0,70,-99.99,,,0.02,weatherlink.com 1.10,2013-09-21 15:35:00,
2013-09-21 11:51:00,66.0,55.0,29.77,NNW,340,2.0,-999.0,67,-99.99,,,0.02,weatherlink.com 1.10,2013-09-21 15:51:00,
2013-09-21 12:06:00,65.2,53.0,29.77,NW,321,2.0,-999.0,65,-99.99,,,0.02,weatherlink.com 1.10,2013-09-21 16:06:00,
2013-09-21 12:21:00,63.6,53.0,29.77,NW,309,1.0,-999.0,68,-99.99,,,0.02,weatherlink.com 1.10,2013-09-21 16:21:00,
2013-09-21 12:36:00,65.0,52.0,29.78,WNW,302,10.0,-999.0,64,-99.99,,,0.02,weatherlink.com 1.10,2013-09-21 16:36:00,
2013-09-21 12:51:00,66.5,53.0,29.77,NNW,342,0.0,-999.0,62,-99.99,,,0.02,weatherlink.com 1.10,2013-09-21 16:51:00,
2013-09-21 13:06:00,66.0,49.0,29.78,NNW,331,8.0,-999.0,55,-99.99,,,0.02,weatherlink.com 1.10,2013-09-21 17:06:00,
2013-09-21 13:21:00,67.7,50.0,29.78,West,281,11.0,-999.0,53,-99.99,,,0.02,weatherlink.com 1.10,2013-09-21 17:21:00,
2013-09-21 13:36:00,67.6,50.0,29.78,NNW,337,1.0,-999.0,53,-99.99,,,0.02,weatherlink.com 1.10,2013-09-21 17:36:00,
2013-09-21 13:51:00,66.6,49.0,29.78,NW,306,4.0,-999.0,53,-99.99,,,0.02,weatherlink.com 1.10,2013-09-21 17:51:00,
2013-09-21 14:06:00,67.0,51.0,29.77,WNW,296,5.0,-999.0,56,-99.99,,,0.02,weatherlink.com 1.10,2013-09-21 18:06:00,
2013-09-21 14:21:00,66.0,50.0,29.78,WNW,292,15.0,-999.0,56,-99.99,,,0.02,weatherlink.com 1.10,2013-09-21 18:21:00,
2013-09-21 14:37:00,66.7,51.0,29.78,WNW,290,9.0,-999.0,57,-99.99,,,0.02,weatherlink.com 1.10,2013-09-21 18:37:00,
2013-09-21 14:52:00,67.0,50.0,29.78,NW,325,8.0,-999.0,54,-99.99,,,0.02,weatherlink.com 1.10,2013-09-21 18:52:00,
2013-09-21 15:07:00,65.6,49.0,29.79,WNW,300,10.0,-999.0,56,-99.99,,,0.02,weatherlink.com 1.10,2013-09-21 19:07:00,
2013-09-21 15:22:00,66.1,49.0,29.79,NW,306,17.0,-999.0,54,-99.99,,,0.02,weatherlink.com 1.10,2013-09-21 19:22:00,
2013-09-21 15:37:00,67.0,48.0,29.79,NW,307,7.0,-999.0,51,-99.99,,,0.02,weatherlink.com 1.10,2013-09-21 19:37:00,
2013-09-21 15:52:00,65.5,48.0,29.79,NNW,337,8.0,-999.0,54,-99.99,,,0.02,weatherlink.com 1.10,2013-09-21 19:52:00,
2013-09-21 16:07:00,66.6,49.0,29.79,West,280,6.0,-999.0,53,-99.99,,,0.02,weatherlink.com 1.10,2013-09-21 20:07:00,
2013-09-21 16:22:00,64.8,49.0,29.80,WNW,298,5.0,-999.0,56,-99.99,,,0.03,weatherlink.com 1.10,2013-09-21 20:22:00,
2013-09-21 16:37:00,63.7,48.0,29.80,WNW,294,7.0,-999.0,57,-99.99,,,0.03,weatherlink.com 1.10,2013-09-21 20:37:00,
2013-09-21 16:52:00,62.7,47.0,29.80,NW,325,6.0,-999.0,58,-99.99,,,0.03,weatherlink.com 1.10,2013-09-21 20:52:00,
2013-09-21 17:07:00,62.2,47.0,29.81,NW,312,10.0,-999.0,59,-99.99,,,0.03,weatherlink.com 1.10,2013-09-21 21:07:00,
2013-09-21 17:22:00,62.3,48.0,29.81,WNW,300,7.0,-999.0,60,-99.99,,,0.03,weatherlink.com 1.10,2013-09-21 21:22:00,
2013-09-21 17:38:00,62.1,48.0,29.82,WNW,284,10.0,-999.0,60,-99.99,,,0.03,weatherlink.com 1.10,2013-09-21 21:38:00,
2013-09-21 17:53:00,61.2,48.0,29.82,NNW,327,0.0,-999.0,63,-99.99,,,0.03,weatherlink.com 1.10,2013-09-21 21:53:00,
2013-09-21 18:08:00,60.7,49.0,29.82,WNW,302,4.0,-999.0,66,-99.99,,,0.03,weatherlink.com 1.10,2013-09-21 22:08:00,
2013-09-21 18:23:00,60.5,49.0,29.82,NW,316,0.0,-999.0,66,-99.99,,,0.03,weatherlink.com 1.10,2013-09-21 22:23:00,
2013-09-21 18:38:00,60.6,49.0,29.82,NW,313,5.0,-999.0,65,-99.99,,,0.03,weatherlink.com 1.10,2013-09-21 22:38:00,
2013-09-21 18:53:00,61.3,49.0,29.83,NNW,333,0.0,-999.0,64,-99.99,,,0.03,weatherlink.com 1.10,2013-09-21 22:53:00,
2013-09-21 19:08:00,61.6,48.0,29.83,NW,323,0.0,-999.0,62,-99.99,,,0.03,weatherlink.com 1.10,2013-09-21 23:08:00,
2013-09-21 19:23:00,60.2,48.0,29.83,NW,322,0.0,-999.0,65,-99.99,,,0.03,weatherlink.com 1.10,2013-09-21 23:23:00,
2013-09-21 19:38:00,59.5,48.0,29.83,NW,309,0.0,-999.0,66,-99.99,,,0.03,weatherlink.com 1.10,2013-09-21 23:38:00,
2013-09-21 19:53:00,58.8,48.0,29.83,NW,321,0.0,-999.0,67,-99.99,,,0.03,weatherlink.com 1.10,2013-09-21 23:53:00,
2013-09-21 20:08:00,58.1,48.0,29.83,NW,304,0.0,-999.0,70,-99.99,,,0.03,weatherlink.com 1.10,2013-09-22 00:08:00,
2013-09-21 20:23:00,57.3,48.0,29.83,WNW,302,0.0,-999.0,72,-99.99,,,0.03,weatherlink.com 1.10,2013-09-22 00:23:00,
2013-09-21 20:38:00,56.7,49.0,29.84,NW,304,0.0,-999.0,74,-99.99,,,0.03,weatherlink.com 1.10,2013-09-22 00:38:00,
2013-09-21 20:54:00,56.4,49.0,29.84,NW,304,0.0,-999.0,75,-99.99,,,0.03,weatherlink.com 1.10,2013-09-22 00:54:00,
2013-09-21 21:09:00,56.0,49.0,29.84,NW,304,0.0,-999.0,76,-99.99,,,0.03,weatherlink.com 1.10,2013-09-22 01:09:00,
2013-09-21 21:24:00,55.5,48.0,29.85,NW,304,0.0,-999.0,77,-99.99,,,0.03,weatherlink.com 1.10,2013-09-22 01:24:00,
2013-09-21 21:39:00,55.0,49.0,29.85,NW,304,0.0,-999.0,79,-99.99,,,0.03,weatherlink.com 1.10,2013-09-22 01:39:00,
2013-09-21 21:54:00,54.4,48.0,29.85,NW,304,0.0,-999.0,80,-99.99,,,0.03,weatherlink.com 1.10,2013-09-22 01:54:00,
2013-09-21 22:09:00,53.6,48.0,29.85,NW,304,0.0,-999.0,82,-99.99,,,0.03,weatherlink.com 1.10,2013-09-22 02:09:00,
2013-09-21 22:24:00,52.9,49.0,29.85,WNW,303,0.0,-999.0,85,-99.99,,,0.03,weatherlink.com 1.10,2013-09-22 02:24:00,
2013-09-21 22:54:00,52.5,49.0,29.86,WNW,303,0.0,-999.0,87,-99.99,,,0.03,weatherlink.com 1.10,2013-09-22 02:54:00,
2013-09-21 23:09:00,52.3,49.0,29.86,WNW,303,0.0,-999.0,87,-99.99,,,0.03,weatherlink.com 1.10,2013-09-22 03:09:00,
2013-09-21 23:25:00,52.0,49.0,29.87,NW,304,0.0,-999.0,88,-99.99,,,0.03,weatherlink.com 1.10,2013-09-22 03:25:00,
2013-09-21 23:40:00,52.5,49.0,29.87,NW,304,0.0,-999.0,88,-99.99,,,0.03,weatherlink.com 1.10,2013-09-22 03:40:00,
2013-09-21 23:55:00,52.4,49.0,29.87,NW,304,0.0,-999.0,88,-99.99,,,0.03,weatherlink.com 1.10,2013-09-22 03:55:00,